MOL Courage — C6WX5 — position and weather

sailwx.info

Track history (hours):
 
Tides and Currents Weather Stations Pressure Air Temp Water Temp Dewpoint Dewpoint Depression Visibility Wind Speed Wind Dir Waves Ship Positions

MOL Courage

Last reported at 2014-Jun-24 08:12 UTC. Time now 2014-Jul-24 10:45 UTC.
Position N 38°21' W 123°50'.
Warning: this ship's position is 30 days out of date.

Length 316 m; draft 11.1 m.

Type: Ship (hazmat cat A). MMSI: 311001700.

Date/timePositionNaut miles runAvg speedWind from/ knotsBaromVisibWave heightAir tempDewpointWater temp
2014-Jun-24 08:12N 38°21' W 123°50'1117.6
2014-Jun-24 07:33N 38°13' W 123°40'1616.1
2014-Jun-24 06:33N 38°09' W 123°20'1716.9
2014-Jun-24 05:33N 37°57' W 123°05'1717.1
2014-Jun-24 04:34N 37°48' W 122°46'1111.2
2014-Jun-24 03:33N 37°48' W 122°32'10 9.6
2014-Jun-24 02:33N 37°49' W 122°20'0 0.1
2014-Jun-24 01:32N 37°49' W 122°20'0 0.0
2014-Jun-24 00:32N 37°49' W 122°20'0 0.0
2014-Jun-23 23:32N 37°49' W 122°20'0 0.0
2014-Jun-23 22:32N 37°49' W 122°20'0 0.0
2014-Jun-23 21:32N 37°49' W 122°20'0 0.0
2014-Jun-23 20:29N 37°49' W 122°20'0 0.0
2014-Jun-23 19:26N 37°49' W 122°20'0 0.1
2014-Jun-23 18:32N 37°49' W 122°20'0 0.0
2014-Jun-23 17:32N 37°49' W 122°20'0 0.0
2014-Jun-23 16:32N 37°49' W 122°20'0 0.0
2014-Jun-23 15:32N 37°49' W 122°20'0 0.0
2014-Jun-23 14:29N 37°49' W 122°20'0 0.0
2014-Jun-23 12:32N 37°49' W 122°20'0 0.0
2014-Jun-23 11:32N 37°49' W 122°20'0 0.0
2014-Jun-23 10:32N 37°49' W 122°20'0 0.0
2014-Jun-23 09:32N 37°49' W 122°20'0 0.0
2014-Jun-23 08:32N 37°49' W 122°20'0 0.0
2014-Jun-23 07:32N 37°49' W 122°20'0 0.0
2014-Jun-23 06:32N 37°49' W 122°20'0 0.0
2014-Jun-23 05:32N 37°49' W 122°20'0 0.0
2014-Jun-23 04:32N 37°49' W 122°20'0 0.0
2014-Jun-23 03:32N 37°49' W 122°20'0 0.0
2014-Jun-23 02:32N 37°49' W 122°20'0 0.0
2014-Jun-23 01:32N 37°49' W 122°20'0 0.0
2014-Jun-23 00:32N 37°49' W 122°20'4 3.9
2014-Jun-22 23:34N 37°49' W 122°25'1413.9
2014-Jun-22 22:33N 37°44' W 122°41'1010.0
2014-Jun-22 21:33N 37°38' W 122°51'25217.9
2014-Jun-22 07:30N 34°13' W 119°52'1717.9
2014-Jun-22 06:33N 34°08' W 119°32'4414.5
2014-Jun-22 03:30N 33°49' W 118°44'1111.8
2014-Jun-22 02:33N 33°44' W 118°32'1211.6
2014-Jun-22 01:33N 33°39' W 118°19'6 6.0
2014-Jun-22 00:33N 33°45' W 118°17'1 1.4
2014-Jun-21 23:32N 33°46' W 118°16'0 0.0
2014-Jun-21 21:33N 33°46' W 118°16'0 0.0
2014-Jun-21 19:26N 33°46' W 118°16'0 0.0
2014-Jun-21 18:33N 33°46' W 118°16'0 0.0
2014-Jun-21 17:26N 33°46' W 118°16'0 0.0
2014-Jun-21 16:33N 33°46' W 118°16'0 0.0
2014-Jun-21 15:33N 33°46' W 118°16'0 0.0
2014-Jun-21 14:33N 33°46' W 118°16'0 0.0
2014-Jun-21 13:33N 33°46' W 118°16'0 0.0
2014-Jun-21 12:30N 33°46' W 118°16'0 0.0
2014-Jun-21 11:33N 33°46' W 118°16'0 0.0
2014-Jun-21 10:32N 33°46' W 118°16'0 0.0
2014-Jun-21 09:32N 33°46' W 118°16'0 0.0
2014-Jun-21 08:33N 33°46' W 118°16'0 0.0
2014-Jun-21 07:32N 33°46' W 118°16'0 0.0
2014-Jun-21 06:33N 33°46' W 118°16'0 0.0
2014-Jun-21 05:33N 33°46' W 118°16'0 0.0
2014-Jun-21 04:33N 33°46' W 118°16'0 0.0
2014-Jun-21 03:33N 33°46' W 118°16'0 0.0
2014-Jun-21 02:16N 33°46' W 118°16'0 0.0
2014-Jun-21 01:33N 33°46' W 118°16'0 0.0
2014-Jun-21 00:33N 33°46' W 118°16'0 0.0
2014-Jun-20 23:33N 33°46' W 118°16'0 0.0
2014-Jun-20 22:33N 33°46' W 118°16'0 0.0
2014-Jun-20 21:33N 33°46' W 118°16'0 0.0
2014-Jun-20 20:33N 33°46' W 118°16'0 0.0
2014-Jun-20 19:33N 33°46' W 118°16'0 0.0
2014-Jun-20 18:33N 33°46' W 118°16'0 0.0
2014-Jun-20 17:32N 33°46' W 118°16'0 0.0
2014-Jun-20 16:33N 33°46' W 118°16'0 0.0
2014-Jun-20 15:33N 33°46' W 118°16'0 0.0
2014-Jun-20 14:33N 33°46' W 118°16'0 0.0
2014-Jun-20 13:24N 33°46' W 118°16'0 0.0
2014-Jun-20 12:21N 33°46' W 118°16'0 0.0
2014-Jun-20 11:33N 33°46' W 118°16'0 0.0
2014-Jun-20 10:33N 33°46' W 118°16'0 0.0
2014-Jun-20 09:33N 33°46' W 118°16'0 0.0
2014-Jun-20 08:33N 33°46' W 118°16'0 0.0
2014-Jun-20 07:33N 33°46' W 118°16'0 0.0
2014-Jun-20 06:26N 33°46' W 118°16'0 0.0
2014-Jun-20 05:33N 33°46' W 118°16'0 0.0
2014-Jun-20 04:31N 33°46' W 118°16'0 0.0
2014-Jun-20 03:33N 33°46' W 118°16'0 0.0
2014-Jun-20 02:33N 33°46' W 118°16'0 0.0
2014-Jun-20 01:33N 33°46' W 118°16'0 0.0
2014-Jun-20 00:17N 33°46' W 118°16'0 0.0
2014-Jun-19 23:33N 33°46' W 118°16'0 0.0
2014-Jun-19 22:33N 33°46' W 118°16'0 0.0
2014-Jun-19 21:33N 33°46' W 118°16'0 0.0
2014-Jun-19 20:33N 33°46' W 118°16'0 0.0
2014-Jun-19 19:33N 33°46' W 118°16'0 0.0
2014-Jun-19 18:33N 33°46' W 118°16'0 0.0
2014-Jun-19 17:33N 33°46' W 118°16'0 0.0
2014-Jun-19 16:33N 33°46' W 118°16'0 0.0
2014-Jun-19 14:26N 33°46' W 118°16'0 0.0
2014-Jun-19 12:27N 33°46' W 118°16'0 0.0
2014-Jun-19 09:11N 33°46' W 118°16'0 0.0
2014-Jun-19 03:14N 33°46' W 118°16'0 0.0
2014-Jun-19 02:33N 33°46' W 118°16'0 0.0
2014-Jun-19 01:08N 33°46' W 118°16'0 0.0
2014-Jun-19 00:12N 33°46' W 118°16'0 0.0
2014-Jun-18 23:28N 33°46' W 118°16'0 0.0
2014-Jun-18 22:18N 33°46' W 118°16'0 0.0
2014-Jun-18 21:33N 33°46' W 118°16'0 0.0
2014-Jun-18 20:33N 33°46' W 118°16'0 0.0
2014-Jun-18 19:33N 33°46' W 118°16'0 0.0
2014-Jun-18 04:30N 33°46' W 118°16'0 0.0
2014-Jun-18 03:23N 33°46' W 118°16'0 0.1
2014-Jun-17 23:16N 33°46' W 118°16'0 0.0
2014-Jun-17 21:19N 33°46' W 118°16'0 0.0
2014-Jun-17 20:28N 33°46' W 118°16'0 0.0
2014-Jun-17 19:30N 33°46' W 118°16'9 1.0
2014-Jun-17 10:23N 33°36' W 118°17'1110.8
2014-Jun-17 09:21N 33°40' W 118°30'  
Track history (hours):
 
Tides and Currents Weather Stations Pressure Air Temp Water Temp Dewpoint Dewpoint Depression Visibility Wind Speed Wind Dir Waves Ship Positions

MOL Courage

Last reported at 2014-Jun-24 08:12 UTC. Time now 2014-Jul-24 10:45 UTC.
Position N 38°21' W 123°50'.
Warning: this ship's position is 30 days out of date.

Length 316 m; draft 11.1 m.

Type: Ship (hazmat cat A). MMSI: 311001700.

Date/timePositionNaut miles runAvg speedWind from/ knotsBaromVisibWave heightAir tempDewpointWater temp
2014-Jun-24 08:12N 38°21' W 123°50'1117.6
2014-Jun-24 07:33N 38°13' W 123°40'1616.1
2014-Jun-24 06:33N 38°09' W 123°20'1716.9
2014-Jun-24 05:33N 37°57' W 123°05'1717.1
2014-Jun-24 04:34N 37°48' W 122°46'1111.2
2014-Jun-24 03:33N 37°48' W 122°32'10 9.6
2014-Jun-24 02:33N 37°49' W 122°20'0 0.1
2014-Jun-24 01:32N 37°49' W 122°20'0 0.0
2014-Jun-24 00:32N 37°49' W 122°20'0 0.0
2014-Jun-23 23:32N 37°49' W 122°20'0 0.0
2014-Jun-23 22:32N 37°49' W 122°20'0 0.0
2014-Jun-23 21:32N 37°49' W 122°20'0 0.0
2014-Jun-23 20:29N 37°49' W 122°20'0 0.0
2014-Jun-23 19:26N 37°49' W 122°20'0 0.1
2014-Jun-23 18:32N 37°49' W 122°20'0 0.0
2014-Jun-23 17:32N 37°49' W 122°20'0 0.0
2014-Jun-23 16:32N 37°49' W 122°20'0 0.0
2014-Jun-23 15:32N 37°49' W 122°20'0 0.0
2014-Jun-23 14:29N 37°49' W 122°20'0 0.0
2014-Jun-23 12:32N 37°49' W 122°20'0 0.0
2014-Jun-23 11:32N 37°49' W 122°20'0 0.0
2014-Jun-23 10:32N 37°49' W 122°20'0 0.0
2014-Jun-23 09:32N 37°49' W 122°20'0 0.0
2014-Jun-23 08:32N 37°49' W 122°20'0 0.0
2014-Jun-23 07:32N 37°49' W 122°20'0 0.0
2014-Jun-23 06:32N 37°49' W 122°20'0 0.0
2014-Jun-23 05:32N 37°49' W 122°20'0 0.0
2014-Jun-23 04:32N 37°49' W 122°20'0 0.0
2014-Jun-23 03:32N 37°49' W 122°20'0 0.0
2014-Jun-23 02:32N 37°49' W 122°20'0 0.0
2014-Jun-23 01:32N 37°49' W 122°20'0 0.0
2014-Jun-23 00:32N 37°49' W 122°20'4 3.9
2014-Jun-22 23:34N 37°49' W 122°25'1413.9
2014-Jun-22 22:33N 37°44' W 122°41'1010.0
2014-Jun-22 21:33N 37°38' W 122°51'25217.9
2014-Jun-22 07:30N 34°13' W 119°52'1717.9
2014-Jun-22 06:33N 34°08' W 119°32'4414.5
2014-Jun-22 03:30N 33°49' W 118°44'1111.8
2014-Jun-22 02:33N 33°44' W 118°32'1211.6
2014-Jun-22 01:33N 33°39' W 118°19'6 6.0
2014-Jun-22 00:33N 33°45' W 118°17'1 1.4
2014-Jun-21 23:32N 33°46' W 118°16'0 0.0
2014-Jun-21 21:33N 33°46' W 118°16'0 0.0
2014-Jun-21 19:26N 33°46' W 118°16'0 0.0
2014-Jun-21 18:33N 33°46' W 118°16'0 0.0
2014-Jun-21 17:26N 33°46' W 118°16'0 0.0
2014-Jun-21 16:33N 33°46' W 118°16'0 0.0
2014-Jun-21 15:33N 33°46' W 118°16'0 0.0
2014-Jun-21 14:33N 33°46' W 118°16'0 0.0
2014-Jun-21 13:33N 33°46' W 118°16'0 0.0
2014-Jun-21 12:30N 33°46' W 118°16'0 0.0
2014-Jun-21 11:33N 33°46' W 118°16'0 0.0
2014-Jun-21 10:32N 33°46' W 118°16'0 0.0
2014-Jun-21 09:32N 33°46' W 118°16'0 0.0
2014-Jun-21 08:33N 33°46' W 118°16'0 0.0
2014-Jun-21 07:32N 33°46' W 118°16'0 0.0
2014-Jun-21 06:33N 33°46' W 118°16'0 0.0
2014-Jun-21 05:33N 33°46' W 118°16'0 0.0
2014-Jun-21 04:33N 33°46' W 118°16'0 0.0
2014-Jun-21 03:33N 33°46' W 118°16'0 0.0
2014-Jun-21 02:16N 33°46' W 118°16'0 0.0
2014-Jun-21 01:33N 33°46' W 118°16'0 0.0
2014-Jun-21 00:33N 33°46' W 118°16'0 0.0
2014-Jun-20 23:33N 33°46' W 118°16'0 0.0
2014-Jun-20 22:33N 33°46' W 118°16'0 0.0
2014-Jun-20 21:33N 33°46' W 118°16'0 0.0
2014-Jun-20 20:33N 33°46' W 118°16'0 0.0
2014-Jun-20 19:33N 33°46' W 118°16'0 0.0
2014-Jun-20 18:33N 33°46' W 118°16'0 0.0
2014-Jun-20 17:32N 33°46' W 118°16'0 0.0
2014-Jun-20 16:33N 33°46' W 118°16'0 0.0
2014-Jun-20 15:33N 33°46' W 118°16'0 0.0
2014-Jun-20 14:33N 33°46' W 118°16'0 0.0
2014-Jun-20 13:24N 33°46' W 118°16'0 0.0
2014-Jun-20 12:21N 33°46' W 118°16'0 0.0
2014-Jun-20 11:33N 33°46' W 118°16'0 0.0
2014-Jun-20 10:33N 33°46' W 118°16'0 0.0
2014-Jun-20 09:33N 33°46' W 118°16'0 0.0
2014-Jun-20 08:33N 33°46' W 118°16'0 0.0
2014-Jun-20 07:33N 33°46' W 118°16'0 0.0
2014-Jun-20 06:26N 33°46' W 118°16'0 0.0
2014-Jun-20 05:33N 33°46' W 118°16'0 0.0
2014-Jun-20 04:31N 33°46' W 118°16'0 0.0
2014-Jun-20 03:33N 33°46' W 118°16'0 0.0
2014-Jun-20 02:33N 33°46' W 118°16'0 0.0
2014-Jun-20 01:33N 33°46' W 118°16'0 0.0
2014-Jun-20 00:17N 33°46' W 118°16'0 0.0
2014-Jun-19 23:33N 33°46' W 118°16'0 0.0
2014-Jun-19 22:33N 33°46' W 118°16'0 0.0
2014-Jun-19 21:33N 33°46' W 118°16'0 0.0
2014-Jun-19 20:33N 33°46' W 118°16'0 0.0
2014-Jun-19 19:33N 33°46' W 118°16'0 0.0
2014-Jun-19 18:33N 33°46' W 118°16'0 0.0
2014-Jun-19 17:33N 33°46' W 118°16'0 0.0
2014-Jun-19 16:33N 33°46' W 118°16'0 0.0
2014-Jun-19 14:26N 33°46' W 118°16'0 0.0
2014-Jun-19 12:27N 33°46' W 118°16'0 0.0
2014-Jun-19 09:11N 33°46' W 118°16'0 0.0
2014-Jun-19 03:14N 33°46' W 118°16'0 0.0
2014-Jun-19 02:33N 33°46' W 118°16'0 0.0
2014-Jun-19 01:08N 33°46' W 118°16'0 0.0
2014-Jun-19 00:12N 33°46' W 118°16'0 0.0
2014-Jun-18 23:28N 33°46' W 118°16'0 0.0
2014-Jun-18 22:18N 33°46' W 118°16'0 0.0
2014-Jun-18 21:33N 33°46' W 118°16'0 0.0
2014-Jun-18 20:33N 33°46' W 118°16'0 0.0
2014-Jun-18 19:33N 33°46' W 118°16'0 0.0
2014-Jun-18 04:30N 33°46' W 118°16'0 0.0
2014-Jun-18 03:23N 33°46' W 118°16'0 0.1
2014-Jun-17 23:16N 33°46' W 118°16'0 0.0
2014-Jun-17 21:19N 33°46' W 118°16'0 0.0
2014-Jun-17 20:28N 33°46' W 118°16'0 0.0
2014-Jun-17 19:30N 33°46' W 118°16'9 1.0
2014-Jun-17 10:23N 33°36' W 118°17'1110.8
2014-Jun-17 09:21N 33°40' W 118°30'  

Dump ship's entire track history